Time;durP1;ratioP1;P1;durP2;ratioP2;P2;SDS_P1;SDS_P2;PMS_P1;PMS_P2;Temp;Humidity;BMP_temperature;BMP_pressure;BME280_temperature;BME280_humidity;BME280_pressure;Samples;Min_cycle;Max_cycle;Signal;HPM_P1;HPM_P2
2022/03/28 00:01:13;;;;;;;;;;;12.00;38.70;;;10.50;41.55;102215.47;8277204;28;20016;-81
2022/03/28 00:05:35;;;;;;;;;;;12.00;38.70;;;10.43;41.89;102216.59;8283649;28;20016;-81
2022/03/28 00:09:57;;;;;;;;;;;11.80;38.60;;;10.42;41.60;102217.47;8288259;28;20400;-81
2022/03/28 00:14:19;;;;;;;;;;;11.90;38.70;;;10.20;41.53;102186.75;8304690;28;20016;-81
2022/03/28 00:18:41;;;;;;;;;;;11.80;38.70;;;10.31;41.41;102198.66;8303917;28;19928;-81
2022/03/28 00:23:03;;;;;;;;;;;11.80;38.80;;;10.22;41.78;102185.88;8307825;28;19927;-81
2022/03/28 00:27:25;;;;;;;;;;;11.80;38.80;;;10.27;41.35;102204.88;8334683;28;20374;-81
2022/03/28 00:31:47;;;;;;;;;;;11.70;38.80;;;10.14;42.08;102186.94;8301060;28;20386;-81
2022/03/28 00:36:09;;;;;;;;;;;11.70;38.80;;;10.08;41.40;102176.69;8314263;28;20396;-81
2022/03/28 00:40:34;;;;;;;;;;;11.70;38.80;;;10.09;42.03;102190.59;8303896;28;19922;-81
2022/03/28 00:44:56;;;;;;;;;;;11.60;38.90;;;9.97;42.02;102178.78;8302751;28;20477;-81
2022/03/28 00:49:18;;;;;;;;;;;11.50;38.90;;;10.04;42.15;102180.28;8282695;28;20008;-81
2022/03/28 00:53:41;;;;;;;;;;;11.50;38.90;;;9.85;41.81;102145.19;8306703;28;20019;-81
2022/03/28 00:58:03;;;;;;;;;;;11.50;39.00;;;9.88;41.99;102146.00;8287210;28;20331;-81
2022/03/28 01:02:25;;;;;;;;;;;11.40;39.00;;;9.94;42.33;102155.38;8253184;28;19922;-81
2022/03/28 01:06:47;;;;;;;;;;;11.50;39.00;;;9.97;42.22;102152.69;8298208;28;20007;-81
2022/03/28 01:11:09;;;;;;;;;;;11.40;39.00;;;9.88;42.08;102139.88;8272243;28;20027;-80
2022/03/28 01:15:31;;;;;;;;;;;11.50;39.10;;;9.85;41.91;102126.94;8317517;28;20000;-81
2022/03/28 01:19:53;;;;;;;;;;;11.40;39.00;;;9.93;42.29;102138.84;8299572;28;20012;-82
2022/03/28 01:24:15;;;;;;;;;;;11.40;39.00;;;9.76;41.88;102109.81;8277999;28;20007;-81
2022/03/28 01:28:37;;;;;;;;;;;11.40;39.10;;;9.87;41.96;102130.38;8280497;28;20011;-82
2022/03/28 01:33:00;;;;;;;;;;;11.40;39.10;;;9.86;42.38;102128.66;8288591;28;20011;-82
2022/03/28 01:37:21;;;;;;;;;;;11.40;39.00;;;9.73;41.87;102113.38;8289906;28;20015;-82
2022/03/28 01:41:44;;;;;;;;;;;11.40;39.10;;;9.71;42.15;102112.53;8252213;28;19922;-81
2022/03/28 01:46:06;;;;;;;;;;;11.30;39.10;;;9.71;42.18;102109.94;8288254;28;20015;-82
2022/03/28 01:50:27;;;;;;;;;;;11.20;39.00;;;9.64;42.12;102090.16;8282675;28;19923;-81
2022/03/28 01:54:49;;;;;;;;;;;11.30;39.10;;;9.62;42.39;102096.31;8277413;28;20008;-81
2022/03/28 01:59:11;;;;;;;;;;;11.10;39.00;;;9.58;42.21;102090.31;8296666;28;20461;-81
2022/03/28 02:03:33;;;;;;;;;;;11.30;39.10;;;9.46;42.29;102081.13;8284798;28;20317;-81
2022/03/28 02:07:55;;;;;;;;;;;11.30;39.30;;;9.58;42.21;102111.19;8254526;28;20449;-80
2022/03/28 02:12:17;;;;;;;;;;;11.20;39.00;;;9.49;42.25;102088.84;8289182;28;20004;-81
2022/03/28 02:16:39;;;;;;;;;;;11.10;39.10;;;9.43;42.41;102085.56;8293861;28;20546;-81
2022/03/28 02:21:01;;;;;;;;;;;11.10;39.10;;;9.37;42.06;102084.00;8293718;28;19925;-81
2022/03/28 02:25:23;;;;;;;;;;;11.00;39.10;;;9.18;42.23;102051.50;8289324;28;20019;-81
2022/03/28 02:29:44;;;;;;;;;;;11.00;39.10;;;9.41;42.34;102084.75;8291471;28;20015;-81
2022/03/28 02:34:06;;;;;;;;;;;10.90;39.10;;;9.28;42.39;102063.38;8298504;28;20016;-81
2022/03/28 02:38:28;;;;;;;;;;;10.90;39.10;;;9.27;42.33;102072.97;8263949;28;20014;-81
2022/03/28 02:42:50;;;;;;;;;;;10.90;39.10;;;9.06;42.29;102042.28;8269183;28;20004;-81
2022/03/28 02:47:12;;;;;;;;;;;10.80;39.10;;;9.19;42.23;102066.25;8315620;28;20012;-81
2022/03/28 02:51:33;;;;;;;;;;;10.80;39.10;;;9.19;42.15;102068.88;8286189;28;20004;-81
2022/03/28 02:55:55;;;;;;;;;;;10.80;39.20;;;9.18;42.63;102064.53;8265672;28;20658;-81
2022/03/28 03:00:17;;;;;;;;;;;10.80;39.20;;;9.06;42.68;102050.09;8296968;28;20302;-81
2022/03/28 03:04:39;;;;;;;;;;;10.70;39.20;;;8.97;42.65;102034.72;8292041;28;20012;-80
2022/03/28 03:09:01;;;;;;;;;;;10.70;39.20;;;8.95;42.18;102046.94;8280594;28;20019;-81
2022/03/28 03:13:22;;;;;;;;;;;10.60;39.20;;;8.98;42.25;102057.28;8272141;28;20363;-81
2022/03/28 03:17:44;;;;;;;;;;;10.60;39.30;;;8.96;42.53;102053.84;8266156;28;20035;-80
2022/03/28 03:22:07;;;;;;;;;;;10.50;39.30;;;8.90;42.70;102041.00;8292686;28;19944;-80
2022/03/28 03:26:29;;;;;;;;;;;10.50;39.40;;;8.88;42.78;102032.34;8270919;28;20430;-81
2022/03/28 03:30:51;;;;;;;;;;;10.40;39.40;;;8.69;42.54;102006.81;8296414;28;20000;-81
2022/03/28 03:35:13;;;;;;;;;;;10.40;39.40;;;8.77;42.88;102019.63;8295584;28;20093;-81
2022/03/28 03:39:38;;;;;;;;;;;10.30;39.40;;;8.66;42.58;102016.44;8259642;28;20489;-81
2022/03/28 03:43:59;;;;;;;;;;;10.30;39.50;;;8.74;42.70;102025.75;8292547;28;19925;-81
2022/03/28 03:48:22;;;;;;;;;;;10.30;39.50;;;8.63;42.85;102012.19;8290011;28;20400;-81
2022/03/28 03:52:44;;;;;;;;;;;10.30;39.60;;;8.55;42.63;101988.09;8276619;28;20461;-81
2022/03/28 03:57:06;;;;;;;;;;;10.30;39.60;;;8.64;42.68;102008.66;8279225;28;20016;-81
2022/03/28 04:01:28;;;;;;;;;;;10.20;39.60;;;8.54;42.53;101992.44;8286295;28;19921;-81
2022/03/28 04:05:50;;;;;;;;;;;10.20;39.70;;;8.50;43.00;101997.78;8266555;28;20016;-81
2022/03/28 04:10:12;;;;;;;;;;;10.20;39.70;;;8.52;42.64;101998.59;8281593;28;20438;-81
2022/03/28 04:14:34;;;;;;;;;;;10.10;39.70;;;8.42;42.93;101982.34;8287650;28;20434;-81
2022/03/28 04:18:56;;;;;;;;;;;10.10;39.70;;;8.41;43.09;101980.66;8285689;28;19918;-81
2022/03/28 04:23:18;;;;;;;;;;;9.90;39.70;;;8.45;42.78;101984.88;8315094;28;19921;-81
2022/03/28 04:27:40;;;;;;;;;;;10.10;39.80;;;8.37;42.97;101971.16;8285893;28;19996;-81
2022/03/28 04:32:02;;;;;;;;;;;10.00;39.80;;;8.34;43.02;101968.66;8265037;28;19917;-81
2022/03/28 04:36:25;;;;;;;;;;;10.00;39.80;;;8.38;42.89;101978.94;8278457;28;20001;-81
2022/03/28 04:40:47;;;;;;;;;;;10.00;39.90;;;8.37;43.15;101982.47;8267363;28;20012;-81
2022/03/28 04:45:09;;;;;;;;;;;9.90;39.90;;;8.29;43.10;101971.38;8273191;28;20012;-81
2022/03/28 04:49:31;;;;;;;;;;;10.00;39.90;;;8.35;42.90;101976.44;8261248;28;19924;-81
2022/03/28 04:53:53;;;;;;;;;;;10.00;39.90;;;8.21;43.09;101962.91;8270513;28;20012;-81
2022/03/28 04:58:16;;;;;;;;;;;9.80;39.90;;;8.10;43.36;101939.78;8273898;28;20350;-81
2022/03/28 05:02:38;;;;;;;;;;;9.90;40.00;;;8.33;43.10;101988.63;8282005;28;19925;-80
2022/03/28 05:07:00;;;;;;;;;;;10.00;40.10;;;8.33;43.25;101987.78;8291717;28;20016;-81
2022/03/28 05:11:22;;;;;;;;;;;9.90;40.00;;;8.33;42.96;101987.78;8279747;28;20398;-80
2022/03/28 05:15:44;;;;;;;;;;;10.00;40.10;;;8.32;42.97;101999.09;8321484;28;20008;-81
2022/03/28 05:20:08;;;;;;;;;;;9.90;40.10;;;8.17;43.11;101977.75;8306026;28;20012;-81
2022/03/28 05:24:30;;;;;;;;;;;9.90;40.20;;;8.06;43.00;101961.53;8291392;28;19928;-81
2022/03/28 05:28:52;;;;;;;;;;;9.80;40.10;;;8.20;43.06;101982.00;8298324;28;20012;-81
2022/03/28 05:33:14;;;;;;;;;;;9.90;40.60;;;8.18;43.61;101971.66;8274424;28;20374;-81
2022/03/28 05:37:36;;;;;;;;;;;9.80;40.60;;;8.14;43.16;101969.16;8270334;28;20016;-81
2022/03/28 05:41:58;;;;;;;;;;;9.80;40.30;;;8.15;43.24;101956.09;8275110;28;19928;-81
2022/03/28 05:46:20;;;;;;;;;;;9.80;40.40;;;8.13;43.31;101952.72;8277652;28;20028;-81
2022/03/28 05:50:42;;;;;;;;;;;9.80;40.50;;;8.28;43.78;101959.25;8252523;28;20009;-81
2022/03/28 05:55:05;;;;;;;;;;;9.60;40.40;;;8.23;43.77;101945.50;8282386;28;20004;-80
2022/03/28 05:59:27;;;;;;;;;;;9.90;40.60;;;8.21;43.55;101931.69;8281551;28;20011;-85
2022/03/28 06:03:50;;;;;;;;;;;10.00;40.60;;;8.25;43.51;101932.47;8281725;28;19943;-85
2022/03/28 06:08:12;;;;;;;;;;;10.00;40.70;;;8.22;43.49;101919.53;8265990;28;20020;-86
2022/03/28 06:12:34;;;;;;;;;;;10.00;40.70;;;8.47;43.67;101948.41;8248812;28;19924;-82
2022/03/28 06:16:55;;;;;;;;;;;10.00;40.80;;;8.39;43.68;101925.16;8267855;28;20430;-83
2022/03/28 06:21:18;;;;;;;;;;;10.30;41.10;;;8.53;43.58;101928.28;8319720;28;20458;-85
2022/03/28 06:25:40;;;;;;;;;;;10.20;41.30;;;8.57;43.85;101923.81;8269514;28;19924;-83
2022/03/28 06:30:01;;;;;;;;;;;10.30;41.40;;;8.59;43.94;101916.84;8279258;28;20051;-84
2022/03/28 06:34:23;;;;;;;;;;;10.30;41.40;;;8.80;44.08;101937.06;8272136;28;20011;-81
2022/03/28 06:38:45;;;;;;;;;;;10.50;41.40;;;8.90;43.89;101922.00;8298867;28;20012;-83
2022/03/28 06:43:07;;;;;;;;;;;10.60;41.40;;;8.86;43.83;101884.78;8239048;28;19928;-82
2022/03/28 06:47:30;;;;;;;;;;;10.60;41.50;;;9.08;44.16;101895.44;8297518;28;19917;-83
2022/03/28 06:51:52;;;;;;;;;;;10.70;41.80;;;9.14;43.99;101873.53;8230848;28;20008;-82
2022/03/28 06:56:14;;;;;;;;;;;10.80;41.70;;;9.40;44.12;101890.97;8262869;28;20008;-82
2022/03/28 07:00:36;;;;;;;;;;;11.10;41.80;;;9.35;44.22;101865.97;8268188;28;20000;-80
2022/03/28 07:04:58;;;;;;;;;;;11.10;41.60;;;9.59;44.08;101891.25;8272608;28;20012;-82
2022/03/28 07:09:20;;;;;;;;;;;11.20;41.90;;;9.71;44.10;101885.63;8275940;28;19923;-81
2022/03/28 07:13:42;;;;;;;;;;;11.40;41.80;;;9.85;44.29;101887.75;8261335;28;19926;-81
2022/03/28 07:18:07;;;;;;;;;;;11.50;41.70;;;9.89;43.90;101872.88;8290288;28;20024;-80
2022/03/28 07:22:29;;;;;;;;;;;11.60;41.80;;;9.97;44.09;101860.41;8258376;28;19929;-81
2022/03/28 07:26:53;;;;;;;;;;;11.70;41.80;;;9.97;44.17;101829.09;8264223;28;19928;-80
2022/03/28 07:31:17;;;;;;;;;;;11.90;42.00;;;10.28;44.34;101856.75;8244809;28;19931;-81
2022/03/28 07:35:38;;;;;;;;;;;11.80;41.60;;;10.50;44.45;101862.91;8266105;28;19924;-84
2022/03/28 07:40:05;;;;;;;;;;;12.20;41.80;;;10.54;44.70;101843.59;8244818;28;20644;-82
2022/03/28 07:44:27;;;;;;;;;;;12.30;41.90;;;10.74;44.32;101834.16;8246837;28;19922;-82
2022/03/28 07:48:49;;;;;;;;;;;12.40;42.00;;;11.04;44.72;101851.31;8275432;28;19932;-79
2022/03/28 07:53:10;;;;;;;;;;;12.70;42.20;;;11.22;44.51;101844.47;8269989;28;19927;-78
2022/03/28 07:57:33;;;;;;;;;;;12.90;41.90;;;11.46;44.61;101842.63;8269757;28;19936;-82
2022/03/28 08:01:55;;;;;;;;;;;13.10;41.90;;;11.64;44.79;101837.56;8277736;28;19927;-81
2022/03/28 08:06:17;;;;;;;;;;;13.40;42.60;;;11.92;44.44;101842.50;8280122;28;19918;-84
2022/03/28 08:10:39;;;;;;;;;;;13.50;42.20;;;12.14;44.83;101840.66;8269427;28;20386;-83
2022/03/28 08:15:01;;;;;;;;;;;13.80;42.00;;;12.33;44.50;101818.91;8262682;28;20322;-84
2022/03/28 08:19:23;;;;;;;;;;;14.10;42.00;;;12.65;44.54;101816.59;8268955;28;19924;-84
2022/03/28 08:23:44;;;;;;;;;;;14.40;41.90;;;12.86;44.51;101804.25;8268526;28;20369;-85
2022/03/28 08:28:06;;;;;;;;;;;14.60;41.80;;;13.03;44.81;101791.16;8248972;28;20375;-85
2022/03/28 08:32:28;;;;;;;;;;;14.90;41.70;;;13.36;44.81;101804.44;8273759;28;20032;-91
2022/03/28 08:36:50;;;;;;;;;;;15.00;41.70;;;13.60;44.47;101798.88;8285242;28;19980;-86
2022/03/28 08:41:14;;;;;;;;;;;15.40;41.60;;;13.84;44.74;101794.16;8275779;28;20342;-83
2022/03/28 08:45:37;;;;;;;;;;;15.70;41.60;;;14.06;44.48;101797.34;8270581;28;20363;-85
2022/03/28 08:49:59;;;;;;;;;;;15.90;41.30;;;14.26;44.47;101795.47;8264974;28;20011;-84
2022/03/28 08:54:21;;;;;;;;;;;16.10;41.20;;;14.41;44.59;101773.59;8268345;28;20000;-85
2022/03/28 08:58:43;;;;;;;;;;;16.30;41.20;;;14.72;44.58;101783.31;8285092;28;19935;-89
2022/03/28 09:03:05;;;;;;;;;;;16.50;41.20;;;14.81;44.22;101766.19;8264353;28;19922;-86
2022/03/28 09:07:28;;;;;;;;;;;16.80;41.10;;;15.03;44.33;101758.75;8258969;28;19976;-87
2022/03/28 09:11:55;;;;;;;;;;;17.10;41.00;;;15.31;44.03;101775.59;8226529;28;20376;-84
2022/03/28 09:16:18;;;;;;;;;;;17.10;40.90;;;15.41;44.33;101746.94;8245187;28;19921;-83
2022/03/28 09:20:46;;;;;;;;;;;17.20;40.80;;;15.58;44.10;101744.16;8235375;28;19929;-85
2022/03/28 09:25:10;;;;;;;;;;;17.40;40.80;;;15.86;44.23;101737.25;8275967;28;19926;-85
2022/03/28 09:29:32;;;;;;;;;;;17.70;40.80;;;16.02;44.27;101721.34;8291066;28;20465;-87
2022/03/28 09:34:13;;;;;;;;;;;17.90;40.70;;;16.36;44.11;101749.03;8265751;28;19948;-88
2022/03/28 09:38:35;;;;;;;;;;;18.10;40.60;;;16.52;44.19;101733.94;8275285;28;19921;-95
2022/03/28 09:42:58;;;;;;;;;;;18.30;40.80;;;16.56;43.86;101716.16;8269826;28;19925;-88
2022/03/28 09:47:24;;;;;;;;;;;18.40;40.20;;;16.70;43.99;101704.72;8267014;28;19929;-85
2022/03/28 09:52:00;;;;;;;;;;;18.60;40.10;;;17.04;43.77;101716.56;8249643;28;20316;-88
2022/03/28 09:56:22;;;;;;;;;;;18.80;40.00;;;17.11;43.67;101696.72;8261985;28;20401;-87
2022/03/28 10:00:48;;;;;;;;;;;19.00;39.60;;;17.31;43.49;101708.59;8248968;28;19925;-86
2022/03/28 10:05:10;;;;;;;;;;;19.10;38.90;;;17.44;43.27;101700.66;8241364;28;19932;-88
2022/03/28 10:09:32;;;;;;;;;;;19.20;39.20;;;17.61;43.25;101695.06;8255608;28;19928;-89
2022/03/28 10:13:56;;;;;;;;;;;19.30;38.90;;;17.74;43.42;101684.50;8271638;28;19921;-87
2022/03/28 10:18:17;;;;;;;;;;;19.30;39.00;;;17.86;43.17;101672.22;8275972;28;20375;-89
2022/03/28 10:22:42;;;;;;;;;;;19.60;38.60;;;17.90;43.13;101657.84;8235073;28;20457;-86
2022/03/28 10:27:05;;;;;;;;;;;19.70;38.70;;;17.73;43.07;101613.25;8256457;28;19932;-88
2022/03/28 10:31:30;;;;;;;;;;;19.80;38.50;;;18.04;42.83;101647.13;8267226;28;20705;-88
2022/03/28 10:36:00;;;;;;;;;;;19.90;38.50;;;18.25;42.91;101665.03;8258987;28;19921;-86
2022/03/28 10:40:23;;;;;;;;;;;20.00;38.60;;;18.23;42.78;101643.16;8250952;28;19927;-88
2022/03/28 10:44:47;;;;;;;;;;;20.00;38.40;;;18.44;42.50;101665.38;8288778;28;19925;-90
2022/03/28 10:49:10;;;;;;;;;;;20.10;38.70;;;18.50;42.67;101653.53;8250411;28;19921;-89
2022/03/28 10:53:40;;;;;;;;;;;20.20;38.60;;;18.62;42.45;101660.53;8246502;28;19927;-86
2022/03/28 10:58:17;;;;;;;;;;;20.20;38.20;;;18.64;42.54;101642.75;8260170;28;19917;-86
2022/03/28 11:02:40;;;;;;;;;;;20.30;38.50;;;18.73;42.22;101642.06;8258744;28;19931;-82
2022/03/28 11:07:03;;;;;;;;;;;20.40;38.60;;;18.72;42.29;101615.72;8282980;28;20003;-90
2022/03/28 11:11:27;;;;;;;;;;;20.40;38.40;;;18.63;42.23;101587.28;8263738;28;20008;-89
2022/03/28 11:15:49;;;;;;;;;;;20.40;38.30;;;18.94;42.28;101613.16;8262612;28;19924;-88
2022/03/28 11:20:12;;;;;;;;;;;20.50;37.50;;;19.00;42.32;101595.97;8273019;28;19996;-90
2022/03/28 11:24:56;;;;;;;;;;;20.60;37.90;;;19.16;42.40;101590.31;8264336;28;19921;-88
2022/03/28 11:29:19;;;;;;;;;;;20.70;38.10;;;19.26;42.06;101578.06;8253600;28;20031;-87
2022/03/28 11:33:46;;;;;;;;;;;20.90;38.10;;;19.39;42.21;101570.84;8245462;28;20471;-88
2022/03/28 11:38:09;;;;;;;;;;;20.90;38.10;;;19.41;42.06;101550.34;8253239;28;20016;-86
2022/03/28 11:42:33;;;;;;;;;;;21.10;38.20;;;19.68;41.73;101583.59;8246662;28;20021;-87
2022/03/28 11:46:57;;;;;;;;;;;21.20;38.00;;;19.63;41.77;101551.28;8261812;28;20016;-85
2022/03/28 11:51:19;;;;;;;;;;;21.30;37.10;;;19.72;41.89;101550.59;8286892;28;19996;-86
2022/03/28 11:55:53;;;;;;;;;;;21.40;37.70;;;19.69;41.88;101528.81;8252380;28;20012;-85
2022/03/28 12:00:21;;;;;;;;;;;21.40;37.40;;;19.77;41.57;101526.38;8255790;28;19918;-82
2022/03/28 12:04:44;;;;;;;;;;;21.50;37.70;;;19.88;41.44;101513.91;8265899;28;19922;-85
2022/03/28 12:09:07;;;;;;;;;;;21.50;37.20;;;20.05;41.66;101522.28;8277746;28;20012;-89
2022/03/28 12:13:29;;;;;;;;;;;21.60;37.00;;;20.01;41.30;101494.31;8238532;28;20012;-91
2022/03/28 12:17:52;;;;;;;;;;;21.60;37.20;;;20.01;41.40;101478.41;8266945;28;20003;-89
2022/03/28 12:22:18;;;;;;;;;;;21.60;37.10;;;20.03;41.34;101464.06;8250247;28;19928;-91
2022/03/28 12:26:47;;;;;;;;;;;21.70;37.60;;;20.17;41.07;101476.19;8285342;28;20007;-90
2022/03/28 12:31:09;;;;;;;;;;;21.70;37.30;;;20.23;41.27;101475.66;8283023;28;20004;-92
2022/03/28 12:35:31;;;;;;;;;;;21.70;36.70;;;20.24;41.22;101450.81;8240457;28;19921;-88
2022/03/28 12:39:57;;;;;;;;;;;21.80;36.90;;;20.28;41.00;101446.94;8239525;28;19922;-87
2022/03/28 12:44:24;;;;;;;;;;;21.90;36.80;;;20.25;41.01;101439.25;8244015;28;20501;-88
2022/03/28 12:48:49;;;;;;;;;;;21.90;37.30;;;20.31;40.91;101436.06;8246273;28;19925;-88
2022/03/28 12:53:14;;;;;;;;;;;22.10;37.00;;;20.31;40.86;101425.47;8246686;28;19928;-86
2022/03/28 12:57:37;;;;;;;;;;;21.90;36.20;;;20.17;40.65;101406.38;8240792;28;20431;-87
2022/03/28 13:02:06;;;;;;;;;;;21.90;37.10;;;20.41;40.90;101429.97;8258096;28;20567;-85
2022/03/28 13:06:33;;;;;;;;;;;21.90;36.50;;;20.32;40.81;101410.38;8259881;28;19921;-90
2022/03/28 13:10:57;;;;;;;;;;;21.80;36.90;;;20.28;40.56;101415.13;8247787;28;19928;-85
2022/03/28 13:15:20;;;;;;;;;;;21.80;37.00;;;20.32;40.58;101411.22;8253957;28;19921;-87
2022/03/28 13:20:00;;;;;;;;;;;21.80;37.00;;;20.21;40.57;101392.72;8229029;28;19921;-93
2022/03/28 13:24:22;;;;;;;;;;;21.70;36.60;;;20.10;40.42;101368.94;8257759;28;19925;-87
2022/03/28 13:28:43;;;;;;;;;;;21.70;36.60;;;20.15;40.58;101365.91;8255944;28;19932;-86
2022/03/28 13:33:05;;;;;;;;;;;21.70;36.30;;;20.16;40.23;101363.09;8255858;28;20389;-90
2022/03/28 13:37:27;;;;;;;;;;;21.60;36.80;;;20.05;40.33;101341.97;8260580;28;19921;-88
2022/03/28 13:41:48;;;;;;;;;;;21.60;36.70;;;20.16;40.23;101346.38;8254279;28;19926;-88
2022/03/28 13:46:12;;;;;;;;;;;21.60;36.60;;;20.11;40.40;101338.78;8275479;28;19931;-87
2022/03/28 13:50:35;;;;;;;;;;;21.60;36.30;;;19.99;40.25;101314.19;8282129;28;19920;-86
2022/03/28 13:54:56;;;;;;;;;;;21.60;36.40;;;20.24;40.18;101347.38;8248750;28;20404;-86
2022/03/28 13:59:18;;;;;;;;;;;21.50;36.40;;;20.13;40.19;101307.69;8272468;28;20136;-86
2022/03/28 14:03:40;;;;;;;;;;;21.60;35.60;;;20.26;39.91;101326.03;8271346;28;19931;-87
2022/03/28 14:08:03;;;;;;;;;;;21.60;36.60;;;20.23;40.07;101305.09;8254805;28;19922;-94
2022/03/28 14:12:25;;;;;;;;;;;21.70;36.30;;;20.23;39.98;101295.31;8249431;28;19921;-85
2022/03/28 14:16:47;;;;;;;;;;;21.60;35.50;;;20.20;40.00;101302.69;8252865;28;19922;-86
2022/03/28 14:21:09;;;;;;;;;;;21.60;36.00;;;20.13;40.00;101281.16;8252566;28;19921;-87
2022/03/28 14:25:30;;;;;;;;;;;21.50;34.70;;;20.08;40.07;101283.38;8258854;28;19926;-91
2022/03/28 14:29:53;;;;;;;;;;;21.60;36.00;;;20.15;39.77;101278.41;8255227;28;19997;-87
2022/03/28 14:34:15;;;;;;;;;;;21.40;36.30;;;20.15;39.75;101276.56;8267091;28;19943;-86
2022/03/28 14:38:37;;;;;;;;;;;21.40;35.90;;;20.01;39.59;101237.13;8258593;28;19931;-86
2022/03/28 14:43:02;;;;;;;;;;;21.50;35.60;;;20.04;39.76;101244.84;8255669;28;19936;-85
2022/03/28 14:47:23;;;;;;;;;;;21.40;36.10;;;20.03;39.82;101243.16;8272131;28;19925;-86
2022/03/28 14:51:45;;;;;;;;;;;21.50;36.40;;;19.94;39.52;101226.25;8227723;28;20823;-86
2022/03/28 14:56:07;;;;;;;;;;;21.30;36.20;;;19.98;39.67;101221.50;8261190;28;19922;-85
2022/03/28 15:00:36;;;;;;;;;;;21.40;36.10;;;20.01;39.55;101232.72;8256510;28;21257;-86
2022/03/28 15:05:01;;;;;;;;;;;21.40;36.10;;;20.02;39.55;101230.88;8270711;28;19961;-86
2022/03/28 15:09:23;;;;;;;;;;;21.30;35.90;;;19.92;39.43;101208.78;8261593;28;20012;-86
2022/03/28 15:13:47;;;;;;;;;;;21.30;36.20;;;19.87;39.34;101199.44;8257473;28;20268;-88
2022/03/28 15:18:11;;;;;;;;;;;21.30;36.00;;;19.91;39.42;101202.66;8257544;28;19917;-86
2022/03/28 15:22:33;;;;;;;;;;;21.30;36.20;;;19.95;39.38;101213.81;8256123;28;19928;-83
2022/03/28 15:26:55;;;;;;;;;;;21.30;36.00;;;19.87;39.46;101203.88;8238209;28;19928;-83
2022/03/28 15:31:29;;;;;;;;;;;21.30;36.00;;;19.83;39.49;101199.84;8251637;28;19922;-83
2022/03/28 15:35:51;;;;;;;;;;;21.30;36.20;;;19.81;39.18;101189.34;8252461;28;19925;-82
2022/03/28 15:40:12;;;;;;;;;;;21.20;36.10;;;19.76;39.31;101199.50;8244162;28;19925;-83
2022/03/28 15:44:35;;;;;;;;;;;21.10;36.20;;;19.66;39.50;101180.09;8251300;28;20418;-83
2022/03/28 15:48:57;;;;;;;;;;;21.00;34.60;;;19.61;39.16;101177.81;8248136;28;19936;-85
2022/03/28 15:53:19;;;;;;;;;;;21.00;35.90;;;19.62;39.33;101195.38;8262956;28;19921;-85
2022/03/28 15:57:40;;;;;;;;;;;20.90;35.70;;;19.45;39.27;101161.56;8258339;28;19936;-85
2022/03/28 16:02:02;;;;;;;;;;;20.90;35.10;;;19.41;39.34;101182.16;8254420;28;19927;-84
2022/03/28 16:06:23;;;;;;;;;;;20.80;35.50;;;19.35;39.04;101166.78;8258833;28;19935;-84
2022/03/28 16:10:45;;;;;;;;;;;20.70;35.80;;;19.22;39.24;101144.97;8273691;28;19931;-85
2022/03/28 16:15:07;;;;;;;;;;;20.70;35.90;;;19.09;38.94;101128.44;8259967;28;20001;-85
2022/03/28 16:19:28;;;;;;;;;;;20.60;36.00;;;19.24;39.23;101153.63;8253513;28;19922;-85
2022/03/28 16:23:51;;;;;;;;;;;20.60;36.00;;;19.17;39.03;101144.50;8247366;28;20410;-85
2022/03/28 16:28:12;;;;;;;;;;;20.50;36.20;;;19.18;38.93;101148.88;8274582;28;19921;-85
2022/03/28 16:32:34;;;;;;;;;;;20.50;36.20;;;19.03;39.09;101124.50;8273815;28;20325;-85
2022/03/28 16:36:56;;;;;;;;;;;20.50;36.10;;;19.04;39.15;101133.28;8261470;28;20477;-85
2022/03/28 16:41:18;;;;;;;;;;;20.20;35.50;;;18.89;38.95;101106.31;8265164;28;19928;-85
2022/03/28 16:45:40;;;;;;;;;;;20.30;36.20;;;18.80;39.10;101097.34;8247483;28;19936;-85
2022/03/28 16:50:02;;;;;;;;;;;20.20;36.20;;;18.77;39.11;101097.63;8272446;28;19921;-84
2022/03/28 16:54:24;;;;;;;;;;;20.20;36.30;;;18.87;39.11;101110.91;8263511;28;19925;-83
2022/03/28 16:58:46;;;;;;;;;;;20.10;36.30;;;18.61;38.96;101079.50;8278277;28;19928;-90
2022/03/28 17:03:08;;;;;;;;;;;20.20;36.10;;;18.68;38.91;101101.81;8247513;28;19932;-93
2022/03/28 17:07:30;;;;;;;;;;;20.00;36.10;;;18.46;39.04;101071.03;8264976;28;19921;-89
2022/03/28 17:11:53;;;;;;;;;;;19.90;36.30;;;18.60;39.08;101091.03;8250830;28;19921;-88
2022/03/28 17:16:16;;;;;;;;;;;19.80;36.00;;;18.46;39.14;101081.59;8257050;28;19922;-88
2022/03/28 17:20:37;;;;;;;;;;;19.70;36.20;;;18.40;39.14;101082.13;8262289;28;19921;-89
2022/03/28 17:25:01;;;;;;;;;;;19.70;36.20;;;18.35;39.03;101085.13;8257499;28;20504;-88
2022/03/28 17:29:23;;;;;;;;;;;19.70;36.40;;;18.41;38.97;101090.88;8232815;28;19921;-89
2022/03/28 17:33:44;;;;;;;;;;;19.80;37.00;;;18.14;38.88;101063.09;8262311;28;19921;-92
2022/03/28 17:38:06;;;;;;;;;;;19.60;36.50;;;18.24;39.05;101100.22;8255170;28;19922;-90
2022/03/28 17:42:28;;;;;;;;;;;19.50;36.50;;;18.20;39.13;101106.69;8255811;28;20308;-90
2022/03/28 17:46:49;;;;;;;;;;;19.40;36.50;;;18.03;39.00;101079.81;8258410;28;19932;-90
2022/03/28 17:51:11;;;;;;;;;;;19.30;36.60;;;17.94;38.89;101082.41;8271597;28;19928;-90
2022/03/28 17:55:36;;;;;;;;;;;19.20;36.60;;;17.90;39.13;101087.06;8257888;28;19925;-90
2022/03/28 17:59:58;;;;;;;;;;;19.20;36.60;;;17.79;39.01;101077.34;8255001;28;19921;-91
2022/03/28 18:04:20;;;;;;;;;;;19.10;36.60;;;17.70;39.05;101081.53;8256218;28;19925;-90
2022/03/28 18:08:44;;;;;;;;;;;19.10;36.60;;;17.74;39.00;101097.16;8253538;28;19922;-90
2022/03/28 18:13:05;;;;;;;;;;;19.00;36.60;;;17.51;39.01;101076.03;8246708;28;19922;-90
2022/03/28 18:17:27;;;;;;;;;;;18.90;36.60;;;17.33;38.88;101061.66;8244412;28;20000;-88
2022/03/28 18:21:50;;;;;;;;;;;19.20;36.70;;;17.42;39.11;101087.34;8255506;28;20008;-90
2022/03/28 18:26:12;;;;;;;;;;;18.70;36.50;;;17.29;39.13;101095.38;8249788;28;19928;-90
2022/03/28 18:30:34;;;;;;;;;;;18.60;36.40;;;17.15;39.01;101091.16;8253644;28;19985;-90
2022/03/28 18:34:58;;;;;;;;;;;18.50;36.10;;;17.09;38.97;101109.25;8241438;28;22782;-90
2022/03/28 18:39:22;;;;;;;;;;;18.30;36.20;;;16.78;39.03;101086.03;8256251;28;20000;-88
2022/03/28 18:43:44;;;;;;;;;;;18.30;36.30;;;16.96;38.98;101118.13;8250482;28;19926;-89
2022/03/28 18:48:06;;;;;;;;;;;18.10;36.30;;;16.90;39.02;101128.28;8246475;28;20015;-90
2022/03/28 18:52:30;;;;;;;;;;;18.20;36.40;;;16.79;38.99;101131.72;8258757;28;19993;-90
2022/03/28 18:56:52;;;;;;;;;;;18.10;36.20;;;16.40;38.94;101098.59;8252160;28;20322;-90
2022/03/28 19:01:13;;;;;;;;;;;17.90;36.20;;;16.52;39.00;101129.31;8255050;28;20012;-89
2022/03/28 19:05:35;;;;;;;;;;;17.80;36.30;;;15.94;39.22;101050.09;8236427;28;19928;-89
2022/03/28 19:09:57;;;;;;;;;;;17.80;36.50;;;16.26;39.02;101121.53;8227562;28;19921;-89
2022/03/28 19:14:19;;;;;;;;;;;17.70;36.50;;;16.29;39.20;101138.91;8262339;28;20016;-89
2022/03/28 19:18:41;;;;;;;;;;;17.60;36.50;;;16.17;39.02;101140.63;8259357;28;20587;-90
2022/03/28 19:23:02;;;;;;;;;;;17.50;36.60;;;16.00;39.28;101133.09;8245004;28;20446;-92
2022/03/28 19:27:24;;;;;;;;;;;17.60;36.80;;;15.85;39.19;101127.13;8267043;28;20000;-92
2022/03/28 19:31:46;;;;;;;;;;;17.30;36.80;;;15.76;39.40;101115.44;8255413;28;20596;-90
2022/03/28 19:36:15;;;;;;;;;;;17.10;36.80;;;15.67;39.19;101119.53;8247895;28;20363;-92
2022/03/28 19:40:37;;;;;;;;;;;17.10;36.90;;;15.57;39.44;101099.25;8238909;28;19922;-91
2022/03/28 19:44:59;;;;;;;;;;;17.00;36.90;;;15.57;39.28;101104.50;8262533;28;19926;-90
2022/03/28 19:49:21;;;;;;;;;;;16.90;36.90;;;15.55;39.45;101104.59;8252026;28;20371;-89
2022/03/28 19:53:43;;;;;;;;;;;16.80;37.00;;;15.41;39.49;101084.50;8251751;28;20020;-91
2022/03/28 19:58:04;;;;;;;;;;;16.80;37.00;;;15.15;39.37;101031.09;8253009;28;20439;-91